createdAt,value
2019-02-21T00:00:10.239Z,24.05
2019-02-21T00:02:37.689Z,24.60
2019-02-21T00:05:05.857Z,23.40
2019-02-21T00:07:33.198Z,23.50
2019-02-21T00:10:00.831Z,25.57
2019-02-21T00:12:28.267Z,26.25
2019-02-21T00:14:55.894Z,25.68
2019-02-21T00:17:23.523Z,25.55
2019-02-21T00:19:50.971Z,24.45
2019-02-21T00:22:18.430Z,25.15
2019-02-21T00:24:45.989Z,23.73
2019-02-21T00:27:13.458Z,25.17
2019-02-21T00:29:42.349Z,26.37
2019-02-21T00:32:09.775Z,26.10
2019-02-21T00:34:39.096Z,27.95
2019-02-21T00:37:06.519Z,24.65
2019-02-21T00:39:33.906Z,25.85
2019-02-21T00:42:01.297Z,27.10
2019-02-21T00:44:28.755Z,25.75
2019-02-21T00:46:56.145Z,26.12
2019-02-21T00:49:23.465Z,26.75
2019-02-21T00:51:50.775Z,26.80
2019-02-21T00:54:21.172Z,25.35
2019-02-21T00:56:48.523Z,25.85
2019-02-21T00:59:15.979Z,26.10
2019-02-21T01:01:43.415Z,27.37
2019-02-21T01:04:11.007Z,26.60
2019-02-21T01:06:38.525Z,27.75
2019-02-21T01:09:06.091Z,28.07
2019-02-21T01:11:33.533Z,28.05
2019-02-21T01:14:00.866Z,27.35
2019-02-21T01:16:28.303Z,25.25
2019-02-21T01:18:55.723Z,25.88
2019-02-21T01:21:23.137Z,26.77
2019-02-21T01:23:50.596Z,27.10
2019-02-21T01:26:18.099Z,27.22
2019-02-21T01:28:45.490Z,26.17
2019-02-21T01:31:12.878Z,25.27
2019-02-21T01:33:40.205Z,25.50
2019-02-21T01:36:07.571Z,26.70
2019-02-21T01:38:35.025Z,25.08
2019-02-21T01:41:02.336Z,24.72
2019-02-21T01:43:29.697Z,25.85
2019-02-21T01:45:57.159Z,26.12
2019-02-21T01:48:24.753Z,24.20
2019-02-21T01:50:52.206Z,24.70
2019-02-21T01:53:19.697Z,25.62
2019-02-21T01:55:47.012Z,26.15
2019-02-21T01:58:14.398Z,25.48
2019-02-21T02:00:41.731Z,23.50
2019-02-21T02:03:09.144Z,25.50
2019-02-21T02:05:36.486Z,24.80
2019-02-21T02:08:03.938Z,22.22
2019-02-21T02:10:31.375Z,23.42
2019-02-21T02:12:58.782Z,24.07
2019-02-21T02:15:26.110Z,24.70
2019-02-21T02:17:53.482Z,23.57
2019-02-21T02:20:20.852Z,24.05
2019-02-21T02:22:48.187Z,24.95
2019-02-21T02:25:15.480Z,25.97
2019-02-21T02:27:42.802Z,24.50
2019-02-21T02:30:10.209Z,24.18
2019-02-21T02:32:37.623Z,24.30
2019-02-21T02:35:05.462Z,26.37
2019-02-21T02:37:32.835Z,25.95
2019-02-21T02:40:00.448Z,25.17
2019-02-21T02:42:27.939Z,26.95
2019-02-21T02:44:55.364Z,26.30
2019-02-21T02:47:22.860Z,26.90
2019-02-21T02:49:50.186Z,25.80
2019-02-21T02:52:17.603Z,25.17
2019-02-21T02:54:44.940Z,25.27
2019-02-21T02:57:12.542Z,25.00
2019-02-21T02:59:41.198Z,26.07
2019-02-21T03:02:08.718Z,24.82
2019-02-21T03:04:36.165Z,22.52
2019-02-21T03:07:03.536Z,22.07
2019-02-21T03:09:30.934Z,23.47
2019-02-21T03:11:58.281Z,23.77
2019-02-21T03:14:25.630Z,21.97
2019-02-21T03:16:52.939Z,22.25
2019-02-21T03:19:20.294Z,21.37
2019-02-21T03:21:47.694Z,21.90
2019-02-21T03:24:15.193Z,22.30
2019-02-21T03:26:42.500Z,20.52
2019-02-21T03:29:09.871Z,20.30
2019-02-21T03:31:53.689Z,21.15
2019-02-21T03:34:06.289Z,20.08
2019-02-21T03:36:33.643Z,20.17
2019-02-21T03:39:01.047Z,20.10
2019-02-21T03:41:28.524Z,21.65
2019-02-21T03:43:55.842Z,21.17
2019-02-21T03:46:23.213Z,21.50
2019-02-21T03:48:50.625Z,19.65
2019-02-21T03:51:18.041Z,19.52
2019-02-21T03:53:45.400Z,21.62
2019-02-21T03:56:12.784Z,22.02
2019-02-21T03:58:40.185Z,19.80
2019-02-21T04:01:07.645Z,22.40
2019-02-21T04:03:35.467Z,21.70
2019-02-21T04:06:02.981Z,21.73
2019-02-21T04:08:30.326Z,21.75
2019-02-21T04:10:57.705Z,22.30
2019-02-21T04:13:25.201Z,21.95
2019-02-21T04:15:52.675Z,21.20
2019-02-21T04:18:20.055Z,20.80
2019-02-21T04:20:47.389Z,19.23
2019-02-21T04:23:14.758Z,21.35
2019-02-21T04:25:42.086Z,20.32
2019-02-21T04:28:09.379Z,20.97
2019-02-21T04:30:36.804Z,20.25
2019-02-21T04:33:04.131Z,21.45
2019-02-21T04:35:32.490Z,19.42
2019-02-21T04:38:00.109Z,20.30
2019-02-21T04:40:27.535Z,22.30
2019-02-21T04:42:54.963Z,20.25
2019-02-21T04:45:22.384Z,19.15
2019-02-21T04:47:49.727Z,20.37
2019-02-21T04:50:17.071Z,21.37
2019-02-21T04:52:44.433Z,19.65
2019-02-21T04:55:11.785Z,21.35
2019-02-21T04:57:39.157Z,20.10
2019-02-21T05:00:08.014Z,19.73
2019-02-21T05:02:35.371Z,20.20
2019-02-21T05:05:02.740Z,19.35
2019-02-21T05:07:30.053Z,19.70
2019-02-21T05:09:58.546Z,18.67
2019-02-21T05:12:26.214Z,19.45
2019-02-21T05:14:53.671Z,18.07
2019-02-21T05:17:21.066Z,18.65
2019-02-21T05:19:48.491Z,25.75
2019-02-21T05:22:15.791Z,26.50
2019-02-21T05:24:43.146Z,26.97
2019-02-21T05:27:12.156Z,24.37
2019-02-21T05:29:39.565Z,22.40
2019-02-21T05:32:14.363Z,19.25
2019-02-21T07:33:49.556Z,17.20
2019-02-21T07:36:16.851Z,16.55
2019-02-21T07:38:44.198Z,16.93
2019-02-21T07:41:11.616Z,16.20
2019-02-21T07:43:38.961Z,16.70
2019-02-21T07:46:06.977Z,17.00
2019-02-21T07:48:36.467Z,17.17
2019-02-21T07:51:04.335Z,16.90
2019-02-21T07:53:31.660Z,17.77
2019-02-21T07:55:58.981Z,16.48
2019-02-21T07:58:26.286Z,16.10
2019-02-21T08:00:54.174Z,15.93
2019-02-21T08:03:30.329Z,15.48
2019-02-21T08:05:51.765Z,15.00
2019-02-21T08:08:20.952Z,15.55
2019-02-21T08:10:48.146Z,16.25
2019-02-21T08:13:15.433Z,14.40
2019-02-21T08:15:42.758Z,14.33
2019-02-21T08:18:10.036Z,14.07
2019-02-21T08:20:40.884Z,14.00
2019-02-21T08:23:06.361Z,14.47
2019-02-21T08:25:33.711Z,15.55
2019-02-21T08:28:01.011Z,13.75
2019-02-21T08:30:29.389Z,16.07
2019-02-21T08:33:30.706Z,15.58
2019-02-21T08:35:45.625Z,15.78
2019-02-21T08:38:13.041Z,15.20
2019-02-21T08:40:40.319Z,17.40
2019-02-21T08:43:07.638Z,17.23
2019-02-21T08:45:35.029Z,15.83
2019-02-21T08:48:02.403Z,15.72
2019-02-21T08:50:29.700Z,16.60
2019-02-21T08:52:56.991Z,15.68
2019-02-21T08:55:24.373Z,16.90
2019-02-21T08:57:51.739Z,17.37
2019-02-21T09:00:19.055Z,18.10
2019-02-21T09:02:46.405Z,16.67
2019-02-21T09:08:07.359Z,18.32
2019-02-21T09:10:54.024Z,19.25
2019-02-21T09:13:42.107Z,19.10
2019-02-21T09:16:09.479Z,18.57
2019-02-21T09:18:36.871Z,18.23
2019-02-21T09:21:04.192Z,18.20
2019-02-21T09:23:31.491Z,17.83
2019-02-21T09:25:58.849Z,18.77
2019-02-21T09:28:26.155Z,20.43
2019-02-21T09:30:53.439Z,19.47
2019-02-21T09:33:21.516Z,20.10
2019-02-21T09:35:49.777Z,19.98
2019-02-21T09:38:17.069Z,20.50
2019-02-21T09:40:44.374Z,19.10
2019-02-21T09:43:11.668Z,20.00
2019-02-21T09:45:58.279Z,19.30
2019-02-21T09:48:25.964Z,19.30
2019-02-21T09:50:53.274Z,18.95
2019-02-21T09:53:20.582Z,20.10
2019-02-21T09:55:50.289Z,18.40
2019-02-21T09:58:17.140Z,19.03
2019-02-21T10:01:03.740Z,19.00
2019-02-21T10:03:31.094Z,21.43
2019-02-21T10:05:58.482Z,21.37
2019-02-21T10:08:25.842Z,21.30
2019-02-21T10:10:53.190Z,23.30
2019-02-21T10:13:20.486Z,21.40
2019-02-21T10:15:47.760Z,21.40
2019-02-21T10:18:15.107Z,21.37
2019-02-21T10:20:42.392Z,22.30
2019-02-21T10:23:09.719Z,20.77
2019-02-21T10:25:37.322Z,22.63
2019-02-21T10:28:04.682Z,22.80
2019-02-21T10:30:31.963Z,22.77
2019-02-21T10:32:59.272Z,21.03
2019-02-21T10:35:26.632Z,23.37
2019-02-21T10:37:53.935Z,23.10
2019-02-21T10:40:21.216Z,21.67
2019-02-21T10:42:48.502Z,22.50
2019-02-21T10:48:17.228Z,20.50
2019-02-21T10:50:44.504Z,20.60
2019-02-21T10:53:11.804Z,20.47
2019-02-21T10:55:39.188Z,20.87
2019-02-21T10:58:06.468Z,21.80
2019-02-21T11:00:33.774Z,20.92
2019-02-21T11:03:01.129Z,21.15
2019-02-21T11:05:28.500Z,22.87
2019-02-21T11:07:55.858Z,22.35
2019-02-21T11:58:17.319Z,20.90
2019-02-21T12:00:44.688Z,20.57
2019-02-21T12:03:12.029Z,19.67
2019-02-21T12:05:39.371Z,19.12
2019-02-21T12:08:06.705Z,19.30
2019-02-21T12:10:34.054Z,20.65
2019-02-21T12:13:01.479Z,20.70
2019-02-21T12:15:28.879Z,18.50
2019-02-21T12:17:56.251Z,18.82
2019-02-21T12:20:23.566Z,20.68
2019-02-21T12:22:50.861Z,21.00
2019-02-21T12:25:37.531Z,19.75
2019-02-21T12:28:04.827Z,20.17
2019-02-21T12:30:33.463Z,19.45
2019-02-21T12:43:48.505Z,19.57
2019-02-21T12:46:15.868Z,18.90
2019-02-21T12:48:43.175Z,17.75
2019-02-21T12:51:10.489Z,19.42
2019-02-21T12:53:38.069Z,20.43
2019-02-21T12:56:05.365Z,19.32
2019-02-21T13:29:03.825Z,20.65
2019-02-21T13:31:33.251Z,20.90
2019-02-21T13:34:00.565Z,20.05
2019-02-21T13:36:27.953Z,21.02
2019-02-21T13:38:56.962Z,21.35
2019-02-21T13:41:24.457Z,20.77
2019-02-21T13:43:52.872Z,21.85
2019-02-21T13:46:20.258Z,21.95
2019-02-21T13:48:47.648Z,22.00
2019-02-21T13:51:15.160Z,22.45
2019-02-21T13:53:42.564Z,22.52
2019-02-21T13:56:09.928Z,22.05
2019-02-21T13:58:37.254Z,22.62
2019-02-21T14:01:04.748Z,21.35
2019-02-21T14:22:22.369Z,22.42
2019-02-21T14:24:50.842Z,22.40
2019-02-21T14:27:18.698Z,22.30
2019-02-21T14:29:46.083Z,22.55
2019-02-21T14:32:13.728Z,21.87
2019-02-21T14:43:00.453Z,21.48
2019-02-21T14:45:27.836Z,24.00
2019-02-21T14:47:55.258Z,22.15
2019-02-21T14:50:25.490Z,23.98
2019-02-21T14:58:11.944Z,24.63
2019-02-21T15:00:39.879Z,24.82
2019-02-21T15:03:07.252Z,25.50
2019-02-21T15:16:14.826Z,24.55
2019-02-21T15:18:42.413Z,24.23
2019-02-21T15:21:09.820Z,24.87
2019-02-21T15:23:37.355Z,24.45
2019-02-21T15:26:05.043Z,26.45
2019-02-21T15:28:32.487Z,24.98
2019-02-21T15:30:59.918Z,26.27
2019-02-21T15:33:27.315Z,27.22
2019-02-21T16:08:56.059Z,23.20
2019-02-21T16:11:23.653Z,22.65
2019-02-21T16:14:03.282Z,26.35
2019-02-21T17:09:44.654Z,34.30
2019-02-21T17:12:12.065Z,34.60
2019-02-21T17:14:39.571Z,35.25
2019-02-21T17:17:07.941Z,34.08
2019-02-21T17:43:20.618Z,38.30
2019-02-21T17:45:47.988Z,38.90
2019-02-21T17:48:15.819Z,41.28
2019-02-21T17:50:43.523Z,41.70
2019-02-21T17:53:11.176Z,41.15
2019-02-21T17:55:38.776Z,40.05
2019-02-21T17:58:06.477Z,42.00
2019-02-21T19:38:20.851Z,47.23
2019-02-21T19:40:48.163Z,48.70
2019-02-21T19:43:15.661Z,50.00
2019-02-21T19:45:43.222Z,47.38
2019-02-21T19:48:10.651Z,46.63
2019-02-21T19:50:39.269Z,50.48
2019-02-21T19:53:27.442Z,48.52
2019-02-21T19:55:54.833Z,45.95
2019-02-21T19:58:24.745Z,48.52
2019-02-21T20:00:51.449Z,48.08
2019-02-21T20:03:18.908Z,46.73
2019-02-21T20:05:46.259Z,44.95
2019-02-21T20:08:20.891Z,46.92
2019-02-21T20:10:42.737Z,43.55
2019-02-21T20:13:11.325Z,47.73
2019-02-21T20:15:38.716Z,46.30
2019-02-21T20:18:27.563Z,43.98
2019-02-21T20:20:55.007Z,45.83
2019-02-21T20:23:22.345Z,42.65
2019-02-21T20:25:49.735Z,44.27
2019-02-21T20:28:17.109Z,41.95
2019-02-21T20:30:44.493Z,43.92
2019-02-21T20:33:11.770Z,43.63
2019-02-21T20:35:40.158Z,42.78
2019-02-21T20:38:07.475Z,40.52
2019-02-21T20:40:35.279Z,42.60
2019-02-21T20:43:22.297Z,43.38
2019-02-21T20:45:53.000Z,43.92
2019-02-21T20:51:17.285Z,38.40
2019-02-21T20:53:44.672Z,45.88
2019-02-21T20:56:22.256Z,44.00
2019-02-21T20:58:49.649Z,44.98
2019-02-21T21:01:36.337Z,41.75
2019-02-21T21:04:04.023Z,40.15
2019-02-21T21:06:31.482Z,35.85
2019-02-21T21:08:58.813Z,44.70
2019-02-21T21:11:26.112Z,39.10
2019-02-21T21:16:26.721Z,44.23
2019-02-21T21:18:54.150Z,39.95
2019-02-21T21:21:21.626Z,43.63
2019-02-21T21:23:48.982Z,41.88
2019-02-21T21:26:16.291Z,45.10
2019-02-21T21:29:04.817Z,41.63
2019-02-21T21:31:32.480Z,38.70
2019-02-21T21:34:00.271Z,44.45
2019-02-21T21:36:29.750Z,42.98
2019-02-21T21:38:56.638Z,42.53
2019-02-21T21:41:23.994Z,31.80
2019-02-21T21:43:51.284Z,44.98
2019-02-21T21:46:18.666Z,44.23
2019-02-21T21:48:46.021Z,42.35
2019-02-21T21:51:13.423Z,42.17
2019-02-21T21:53:40.795Z,42.25
2019-02-21T21:56:08.337Z,43.83
2019-02-21T21:58:35.744Z,42.20
2019-02-21T22:01:03.129Z,34.23
2019-02-21T22:03:30.417Z,39.70
2019-02-21T22:05:59.665Z,34.25
2019-02-21T22:08:26.978Z,41.85
2019-02-21T22:10:54.370Z,41.33
2019-02-21T22:13:21.728Z,42.40
2019-02-21T22:15:49.038Z,37.17
2019-02-21T22:18:16.396Z,36.42
2019-02-21T22:20:43.695Z,39.58
2019-02-21T22:23:11.070Z,35.95
2019-02-21T22:25:38.351Z,37.48
2019-02-21T22:28:05.675Z,40.40
2019-02-21T22:30:33.030Z,38.08
2019-02-21T22:33:00.312Z,38.58
2019-02-21T22:35:27.631Z,37.10
2019-02-21T22:37:54.999Z,38.50
2019-02-21T22:40:22.348Z,41.53
2019-02-21T22:42:49.668Z,38.63
2019-02-21T22:45:17.019Z,40.20
2019-02-21T22:47:44.360Z,37.88
2019-02-21T22:50:33.157Z,40.33
2019-02-21T22:53:00.453Z,37.98
2019-02-21T22:55:27.731Z,38.63
2019-02-21T22:57:55.036Z,34.95
2019-02-21T23:03:51.339Z,38.08
2019-02-21T23:06:38.047Z,37.88
2019-02-21T23:11:58.918Z,31.68
2019-02-21T23:14:26.212Z,35.90
2019-02-21T23:16:53.599Z,36.25
2019-02-21T23:19:21.035Z,37.30
2019-02-21T23:21:48.327Z,36.70
2019-02-21T23:24:15.641Z,37.15
2019-02-21T23:26:42.957Z,36.95
2019-02-21T23:29:10.329Z,35.92
2019-02-21T23:31:37.658Z,36.28
2019-02-21T23:36:53.047Z,35.65
2019-02-21T23:39:20.340Z,32.33
2019-02-21T23:41:47.633Z,33.92
2019-02-21T23:44:14.982Z,31.70
2019-02-21T23:46:42.299Z,33.85
2019-02-21T23:49:09.653Z,34.25
2019-02-21T23:51:37.042Z,33.73
2019-02-21T23:54:04.328Z,33.28
2019-02-21T23:56:31.621Z,35.85
2019-02-21T23:58:59.070Z,35.92
